Terminal Aerodrome Forecast
Issued by NWS North Platte, NE

Home | Current Version | Previous Version | Graphics & Text | Print | Product List | Glossary On
Versions: 1 2 3 4 5 6 7 8 9 10 11 12 13
052
FTUS43 KLBF 170006 AAA
TAFVTN
TAF AMD
KVTN 170006Z 1700/1724 VRB06KT P6SM SKC
     FM171800 26006KT P6SM SKC=

USA.gov is the U.S. government's official web portal to all federal, state and local government web resources and services.